createdAt,value
2018-02-15T00:01:53.712Z,100393.42
2018-02-15T00:04:19.682Z,100392.28
2018-02-15T00:06:45.749Z,100375.33
2018-02-15T00:09:11.766Z,100376.63
2018-02-15T00:11:37.746Z,100371.76
2018-02-15T00:14:03.760Z,100376.13
2018-02-15T00:16:29.748Z,100369.84
2018-02-15T00:18:55.722Z,100369.63
2018-02-15T00:21:21.690Z,100367.61
2018-02-15T00:23:47.666Z,100374.62
2018-02-15T00:26:13.642Z,100367.20
2018-02-15T00:28:39.618Z,100367.33
2018-02-15T00:31:05.596Z,100364.15
2018-02-15T00:33:31.570Z,100368.17
2018-02-15T00:35:57.536Z,100369.85
2018-02-15T00:38:23.505Z,100370.22
2018-02-15T00:40:49.486Z,100371.55
2018-02-15T00:43:15.464Z,100370.80
2018-02-15T00:45:41.448Z,100377.64
2018-02-15T00:48:07.448Z,100376.59
2018-02-15T00:50:33.424Z,100380.94
2018-02-15T00:52:59.394Z,100380.41
2018-02-15T00:55:25.376Z,100382.53
2018-02-15T00:57:51.368Z,100381.34
2018-02-15T01:00:17.382Z,100371.79
2018-02-15T01:02:43.378Z,100383.74
2018-02-15T01:05:09.351Z,100384.92
2018-02-15T01:07:35.330Z,100387.41
2018-02-15T01:10:01.319Z,100379.88
2018-02-15T01:12:27.302Z,100385.69
2018-02-15T01:14:53.282Z,100378.67
2018-02-15T01:17:19.261Z,100380.28
2018-02-15T01:19:45.242Z,100375.30
2018-02-15T01:22:11.227Z,100376.58
2018-02-15T01:24:37.231Z,100380.09
2018-02-15T01:27:03.236Z,100381.26
2018-02-15T01:29:29.307Z,100380.70
2018-02-15T01:31:55.301Z,100380.59
2018-02-15T01:34:21.274Z,100384.84
2018-02-15T01:36:47.251Z,100388.70
2018-02-15T01:39:13.243Z,100385.71
2018-02-15T01:41:39.226Z,100382.85
2018-02-15T01:44:05.232Z,100383.23
2018-02-15T01:46:31.217Z,100383.50
2018-02-15T01:48:58.234Z,100381.66
2018-02-15T01:51:24.213Z,100386.23
2018-02-15T01:53:50.197Z,100381.80
2018-02-15T01:56:16.197Z,100381.95
2018-02-15T01:58:42.191Z,100376.33
2018-02-15T02:01:08.169Z,100371.47
2018-02-15T02:03:34.160Z,100369.09
2018-02-15T02:06:00.129Z,100365.25
2018-02-15T02:08:26.130Z,100357.58
2018-02-15T02:10:52.113Z,100357.88
2018-02-15T02:13:18.147Z,100354.82
2018-02-15T02:15:44.097Z,100352.96
2018-02-15T02:18:10.105Z,100347.41
2018-02-15T02:20:36.217Z,100344.88
2018-02-15T02:23:02.307Z,100343.77
2018-02-15T02:25:28.509Z,100341.45
2018-02-15T02:27:54.520Z,100346.26
2018-02-15T02:30:20.530Z,100347.46
2018-02-15T02:32:46.527Z,100346.12
2018-02-15T02:35:12.520Z,100343.88
2018-02-15T02:37:38.530Z,100344.22
2018-02-15T02:40:04.517Z,100345.70
2018-02-15T02:42:30.493Z,100343.09
2018-02-15T02:44:56.488Z,100344.12
2018-02-15T02:47:22.483Z,100336.79
2018-02-15T02:49:48.463Z,100338.83
2018-02-15T02:52:14.481Z,100340.41
2018-02-15T02:54:40.471Z,100341.75
2018-02-15T02:57:06.445Z,100342.09
2018-02-15T02:59:32.430Z,100341.41
2018-02-15T03:01:58.409Z,100340.23
2018-02-15T03:04:24.422Z,100337.00
2018-02-15T03:06:50.401Z,100340.56
2018-02-15T03:09:16.389Z,100344.67
2018-02-15T03:11:42.373Z,100343.78
2018-02-15T03:14:08.365Z,100340.42
2018-02-15T03:16:34.343Z,100340.34
2018-02-15T03:19:00.330Z,100342.20
2018-02-15T03:21:26.341Z,100346.00
2018-02-15T03:23:52.363Z,100352.63
2018-02-15T03:26:18.355Z,100348.76
2018-02-15T03:28:44.345Z,100350.25
2018-02-15T03:31:10.335Z,100341.95
2018-02-15T03:33:36.326Z,100277.66
2018-02-15T03:36:02.303Z,100341.47
2018-02-15T03:38:28.300Z,100338.67
2018-02-15T03:40:54.281Z,100328.51
2018-02-15T03:43:20.274Z,100325.73
2018-02-15T03:45:46.266Z,100329.22
2018-02-15T03:48:12.260Z,100323.78
2018-02-15T03:50:38.241Z,100322.44
2018-02-15T03:53:04.242Z,100321.19
2018-02-15T03:58:02.545Z,100317.41
2018-02-15T04:00:28.540Z,100315.86
2018-02-15T04:02:54.536Z,100304.92
2018-02-15T04:05:20.541Z,100300.06
2018-02-15T04:07:46.544Z,100297.17
2018-02-15T04:10:12.546Z,100289.41
2018-02-15T04:12:38.545Z,100297.02
2018-02-15T04:15:04.598Z,100304.41
2018-02-15T04:17:30.588Z,100308.27
2018-02-15T04:19:56.567Z,100310.70
2018-02-15T04:22:22.571Z,100313.18
2018-02-15T04:24:48.561Z,100314.25
2018-02-15T04:27:14.559Z,100316.56
2018-02-15T04:29:40.563Z,100318.97
2018-02-15T04:32:06.557Z,100311.59
2018-02-15T04:34:32.581Z,100316.65
2018-02-15T04:36:58.587Z,100312.54
2018-02-15T04:39:24.575Z,100310.15
2018-02-15T04:41:50.560Z,100311.59
2018-02-15T04:44:17.600Z,100316.17
2018-02-15T04:46:43.602Z,100318.04
2018-02-15T04:49:09.583Z,100314.77
2018-02-15T04:51:35.575Z,100312.75
2018-02-15T04:54:01.609Z,100314.22
2018-02-15T04:56:27.599Z,100315.42
2018-02-15T04:58:53.639Z,100312.44
2018-02-15T05:01:19.632Z,100316.62
2018-02-15T05:03:45.629Z,100316.31
2018-02-15T05:06:11.713Z,100309.42
2018-02-15T05:08:37.731Z,100316.32
2018-02-15T05:11:03.721Z,100319.41
2018-02-15T05:13:29.781Z,100327.44
2018-02-15T05:15:55.771Z,100323.19
2018-02-15T05:18:21.783Z,100331.87
2018-02-15T05:20:47.765Z,100326.62
2018-02-15T05:23:13.746Z,100324.09
2018-02-15T05:25:39.721Z,100315.77
2018-02-15T05:28:05.721Z,100314.97
2018-02-15T05:30:31.701Z,100311.37
2018-02-15T05:32:57.703Z,100306.27
2018-02-15T05:35:23.676Z,100305.70
2018-02-15T05:37:49.685Z,100298.27
2018-02-15T05:40:15.667Z,100292.68
2018-02-15T05:42:41.649Z,100287.77
2018-02-15T05:45:07.635Z,100286.73
2018-02-15T05:47:33.627Z,100288.16
2018-02-15T05:49:59.613Z,100281.53
2018-02-15T05:52:25.589Z,100273.53
2018-02-15T05:54:51.591Z,100272.63
2018-02-15T05:57:17.577Z,100277.67
2018-02-15T05:59:43.567Z,100285.91
2018-02-15T06:02:09.583Z,100283.41
2018-02-15T06:04:35.587Z,100283.83
2018-02-15T06:07:01.578Z,100289.94
2018-02-15T06:09:27.706Z,100290.22
2018-02-15T06:11:53.692Z,100288.48
2018-02-15T06:14:19.681Z,100282.86
2018-02-15T06:16:45.719Z,100294.13
2018-02-15T06:19:11.846Z,100301.02
2018-02-15T06:21:38.101Z,100299.94
2018-02-15T06:24:04.369Z,100302.34
2018-02-15T06:26:30.618Z,100294.78
2018-02-15T06:28:56.878Z,100294.08
2018-02-15T06:31:23.155Z,100289.69
2018-02-15T06:33:49.399Z,100285.59
2018-02-15T06:36:15.744Z,100291.27
2018-02-15T06:38:42.027Z,100296.84
2018-02-15T06:41:08.281Z,100300.36
2018-02-15T06:43:34.524Z,100305.28
2018-02-15T06:46:00.830Z,100309.97
2018-02-15T06:48:27.114Z,100308.66
2018-02-15T06:50:53.376Z,100312.09
2018-02-15T06:53:19.638Z,100313.39
2018-02-15T06:55:45.902Z,100309.64
2018-02-15T06:58:12.200Z,100313.28
2018-02-15T07:00:38.450Z,100304.54
2018-02-15T07:03:04.737Z,100314.48
2018-02-15T07:05:30.988Z,100315.86
2018-02-15T07:07:57.255Z,100301.88
2018-02-15T07:10:23.545Z,100300.16
2018-02-15T07:12:49.822Z,100298.14
2018-02-15T07:15:16.129Z,100299.58
2018-02-15T07:17:43.424Z,100295.89
2018-02-15T07:20:09.690Z,100295.48
2018-02-15T07:22:35.962Z,100290.98
2018-02-15T07:25:02.223Z,100291.39
2018-02-15T07:27:28.495Z,100299.19
2018-02-15T07:29:54.755Z,100291.06
2018-02-15T07:32:21.021Z,100288.16
2018-02-15T07:34:47.454Z,100295.03
2018-02-15T07:37:14.842Z,100292.55
2018-02-15T07:39:41.083Z,100288.94
2018-02-15T07:42:07.437Z,100284.30
2018-02-15T07:44:33.757Z,100286.06
2018-02-15T07:47:00.028Z,100284.02
2018-02-15T07:49:26.329Z,100277.84
2018-02-15T07:51:52.659Z,100278.30
2018-02-15T07:54:19.464Z,100272.36
2018-02-15T07:56:45.746Z,100275.63
2018-02-15T07:59:12.020Z,100277.63
2018-02-15T08:01:38.352Z,100266.05
2018-02-15T08:04:04.645Z,100259.00
2018-02-15T08:06:30.928Z,100268.48
2018-02-15T08:08:57.183Z,100252.22
2018-02-15T08:11:23.458Z,100246.09
2018-02-15T08:13:49.709Z,100247.37
2018-02-15T08:16:15.988Z,100246.97
2018-02-15T08:18:42.240Z,100236.53
2018-02-15T08:21:08.493Z,100239.37
2018-02-15T08:23:34.741Z,100249.20
2018-02-15T08:26:01.045Z,100246.94
2018-02-15T08:28:27.319Z,100249.53
2018-02-15T08:30:53.669Z,100255.33
2018-02-15T08:33:19.941Z,100254.56
2018-02-15T08:35:46.185Z,100259.34
2018-02-15T08:38:12.449Z,100256.63
2018-02-15T08:40:38.700Z,100264.96
2018-02-15T08:43:05.008Z,100259.87
2018-02-15T08:45:31.297Z,100249.41
2018-02-15T08:47:57.566Z,100256.64
2018-02-15T08:50:23.825Z,100255.91
2018-02-15T08:52:50.093Z,100243.88
2018-02-15T08:55:16.351Z,100242.58
2018-02-15T08:57:42.690Z,100243.47
2018-02-15T09:00:09.022Z,100248.65
2018-02-15T09:02:35.284Z,100250.01
2018-02-15T09:05:01.532Z,100237.14
2018-02-15T09:07:27.802Z,100238.11
2018-02-15T09:09:54.076Z,100238.55
2018-02-15T09:12:20.326Z,100240.52
2018-02-15T09:14:46.595Z,100236.86
2018-02-15T09:17:12.858Z,100232.51
2018-02-15T09:19:39.128Z,100241.59
2018-02-15T09:22:05.383Z,100249.59
2018-02-15T09:24:31.644Z,100251.80
2018-02-15T09:26:57.888Z,100240.20
2018-02-15T09:29:24.163Z,100245.69
2018-02-15T09:31:50.461Z,100242.55
2018-02-15T09:34:16.769Z,100250.14
2018-02-15T09:36:43.097Z,100237.42
2018-02-15T09:39:09.425Z,100246.12
2018-02-15T09:41:35.719Z,100221.09
2018-02-15T09:44:01.985Z,100223.38
2018-02-15T09:46:28.247Z,100222.98
2018-02-15T09:48:54.508Z,100221.27
2018-02-15T09:51:20.785Z,100220.41
2018-02-15T09:53:47.045Z,100215.25
2018-02-15T09:56:13.294Z,100217.59
2018-02-15T09:58:39.561Z,100223.61
2018-02-15T10:01:05.893Z,100231.45
2018-02-15T10:03:32.217Z,100225.05
2018-02-15T10:05:58.550Z,100210.45
2018-02-15T10:08:24.878Z,100213.16
2018-02-15T10:10:51.201Z,100217.77
2018-02-15T10:13:17.543Z,100207.94
2018-02-15T10:15:43.857Z,100205.51
2018-02-15T10:18:10.174Z,100205.59
2018-02-15T10:20:36.524Z,100217.78
2018-02-15T10:23:02.830Z,100217.56
2018-02-15T10:25:29.162Z,100215.31
2018-02-15T10:27:55.549Z,100218.02
2018-02-15T10:30:21.873Z,100206.90
2018-02-15T10:32:48.186Z,100213.48
2018-02-15T10:35:14.518Z,100198.34
2018-02-15T10:37:41.256Z,100210.17
2018-02-15T10:40:07.570Z,100205.25
2018-02-15T10:42:33.898Z,100205.27
2018-02-15T10:45:00.224Z,100201.50
2018-02-15T10:47:26.536Z,100191.30
2018-02-15T10:49:52.842Z,100192.12
2018-02-15T10:52:19.187Z,100198.12
2018-02-15T10:54:45.497Z,100201.86
2018-02-15T10:57:11.811Z,100200.73
2018-02-15T10:59:38.129Z,100189.16
2018-02-15T11:02:04.456Z,100193.80
2018-02-15T11:04:30.801Z,100197.66
2018-02-15T11:06:57.133Z,100192.56
2018-02-15T11:09:23.453Z,100201.48
2018-02-15T11:11:49.765Z,100192.81
2018-02-15T11:14:16.086Z,100192.20
2018-02-15T11:16:42.397Z,100183.86
2018-02-15T11:19:08.719Z,100174.80
2018-02-15T11:21:35.026Z,100173.88
2018-02-15T11:24:01.358Z,100169.08
2018-02-15T11:26:27.669Z,100169.09
2018-02-15T11:28:53.989Z,100181.37
2018-02-15T11:31:20.323Z,100169.76
2018-02-15T11:33:46.650Z,100153.58
2018-02-15T11:36:12.964Z,100155.20
2018-02-15T11:38:39.303Z,100160.51
2018-02-15T11:41:05.635Z,100153.90
2018-02-15T11:43:32.087Z,100151.79
2018-02-15T11:45:58.414Z,100148.23
2018-02-15T11:48:24.752Z,100148.23
2018-02-15T11:50:51.074Z,100151.96
2018-02-15T11:53:17.424Z,100126.55
2018-02-15T11:55:43.748Z,100135.55
2018-02-15T11:58:10.082Z,100135.05
2018-02-15T12:00:36.422Z,100138.07
2018-02-15T12:03:02.746Z,100114.84
2018-02-15T12:05:29.068Z,100113.34
2018-02-15T12:07:55.412Z,100102.43
2018-02-15T12:10:21.734Z,100100.63
2018-02-15T12:12:48.072Z,100094.84
2018-02-15T12:15:14.399Z,100096.79
2018-02-15T12:17:40.705Z,100087.91
2018-02-15T12:20:07.033Z,100083.75
2018-02-15T12:22:33.348Z,100079.39
2018-02-15T12:24:59.665Z,100080.17
2018-02-15T12:27:26.023Z,100083.41
2018-02-15T12:29:52.363Z,100068.58
2018-02-15T12:32:18.709Z,100065.97
2018-02-15T12:34:45.029Z,100064.58
2018-02-15T12:37:11.369Z,100064.84
2018-02-15T12:39:37.697Z,100063.52
2018-02-15T12:42:03.660Z,100066.27
2018-02-15T12:44:29.620Z,100060.28
2018-02-15T12:46:55.569Z,100060.37
2018-02-15T12:49:21.510Z,100048.23
2018-02-15T12:51:47.433Z,100042.19
2018-02-15T12:54:13.377Z,100032.70
2018-02-15T12:56:39.310Z,100032.36
2018-02-15T12:59:05.250Z,100027.27
2018-02-15T13:01:31.176Z,100026.39
2018-02-15T13:03:57.135Z,100018.86
2018-02-15T13:06:23.087Z,100009.67
2018-02-15T13:08:49.036Z,100011.78
2018-02-15T13:11:14.983Z,100011.39
2018-02-15T13:13:40.914Z,100009.60
2018-02-15T13:16:06.851Z,100006.48
2018-02-15T13:18:32.798Z,100001.11
2018-02-15T13:20:58.730Z,99999.75
2018-02-15T13:23:24.722Z,99998.65
2018-02-15T13:25:50.664Z,99996.23
2018-02-15T13:28:16.601Z,99985.72
2018-02-15T13:30:42.525Z,99993.30
2018-02-15T13:33:08.458Z,99991.82
2018-02-15T13:35:34.397Z,99988.21
2018-02-15T13:38:00.322Z,99970.16
2018-02-15T13:40:26.247Z,99978.06
2018-02-15T13:42:52.194Z,99995.15
2018-02-15T13:45:18.127Z,99987.06
2018-02-15T13:47:44.060Z,99979.47
2018-02-15T13:50:09.980Z,99979.58
2018-02-15T13:52:35.918Z,99976.93
2018-02-15T13:55:01.842Z,99973.47
2018-02-15T13:57:27.788Z,99971.63
2018-02-15T13:59:53.712Z,99974.16
2018-02-15T14:02:19.642Z,99974.52
2018-02-15T14:04:45.578Z,99978.80
2018-02-15T14:07:11.505Z,99966.69
2018-02-15T14:09:37.430Z,99973.06
2018-02-15T14:12:03.358Z,99975.12
2018-02-15T14:14:29.309Z,99985.14
2018-02-15T14:16:55.238Z,99990.03
2018-02-15T14:19:21.184Z,99987.25
2018-02-15T14:21:47.134Z,99981.22
2018-02-15T14:24:13.080Z,99976.42
2018-02-15T14:26:39.034Z,99987.06
2018-02-15T14:29:04.942Z,99988.78
2018-02-15T14:31:30.874Z,99981.58
2018-02-15T14:33:56.807Z,99977.74
2018-02-15T14:36:22.756Z,99976.05
2018-02-15T14:38:48.694Z,99975.89
2018-02-15T14:41:14.622Z,99975.89
2018-02-15T14:43:40.555Z,99983.45
2018-02-15T14:46:06.476Z,99988.03
2018-02-15T14:48:32.411Z,99984.08
2018-02-15T14:50:58.342Z,99976.19
2018-02-15T14:53:24.297Z,99974.00
2018-02-15T14:55:50.239Z,99973.19
2018-02-15T14:58:16.176Z,99975.72
2018-02-15T15:00:42.098Z,99973.73
2018-02-15T15:03:08.035Z,99977.25
2018-02-15T15:05:33.984Z,99972.52
2018-02-15T15:07:59.906Z,99976.27
2018-02-15T15:10:25.842Z,99980.35
2018-02-15T15:12:51.772Z,99974.88
2018-02-15T15:15:17.711Z,99976.09
2018-02-15T15:17:43.657Z,99970.87
2018-02-15T15:20:09.589Z,99972.16
2018-02-15T15:22:35.514Z,99983.32
2018-02-15T15:25:01.443Z,99987.98
2018-02-15T15:27:27.366Z,99985.48
2018-02-15T15:29:53.298Z,99988.22
2018-02-15T15:32:19.244Z,99989.23
2018-02-15T15:34:45.178Z,99988.63
2018-02-15T15:37:11.109Z,99993.16
2018-02-15T15:39:37.040Z,99990.12
2018-02-15T15:42:02.962Z,99992.67
2018-02-15T15:44:28.886Z,99983.76
2018-02-15T15:46:54.828Z,99979.97
2018-02-15T15:49:20.766Z,99978.23
2018-02-15T15:51:46.689Z,99975.59
2018-02-15T15:54:12.614Z,99965.08
2018-02-15T15:56:38.554Z,99972.94
2018-02-15T15:59:04.491Z,99960.06
2018-02-15T16:01:30.431Z,99967.09
2018-02-15T16:03:56.368Z,99971.31
2018-02-15T16:06:22.316Z,99966.56
2018-02-15T16:08:48.255Z,99962.03
2018-02-15T16:11:14.187Z,99960.81
2018-02-15T16:13:40.120Z,99947.48
2018-02-15T16:16:06.051Z,99943.53
2018-02-15T16:18:32.018Z,99949.24
2018-02-15T16:20:57.947Z,99946.50
2018-02-15T16:23:23.876Z,99953.41
2018-02-15T16:25:50.113Z,99945.49
2018-02-15T16:28:16.055Z,99954.44
2018-02-15T16:30:41.982Z,99956.30
2018-02-15T16:33:07.907Z,99954.48
2018-02-15T16:35:33.892Z,99950.73
2018-02-15T16:37:59.799Z,99952.84
2018-02-15T16:40:25.741Z,99947.63
2018-02-15T16:42:51.695Z,99949.98
2018-02-15T16:45:17.644Z,99949.64
2018-02-15T16:47:43.567Z,99952.52
2018-02-15T16:50:09.554Z,99959.34
2018-02-15T16:52:35.490Z,99961.08
2018-02-15T16:55:01.422Z,99962.68
2018-02-15T16:57:27.372Z,99965.58
2018-02-15T16:59:53.295Z,99965.97
2018-02-15T17:02:19.218Z,99962.36
2018-02-15T17:04:45.157Z,99969.13
2018-02-15T17:07:11.089Z,99967.89
2018-02-15T17:09:37.031Z,99968.84
2018-02-15T17:12:02.963Z,99971.77
2018-02-15T17:14:29.255Z,99959.87
2018-02-15T17:16:55.177Z,99962.84
2018-02-15T17:19:21.118Z,99965.91
2018-02-15T17:21:47.047Z,99962.45
2018-02-15T17:24:12.988Z,99962.31
2018-02-15T17:26:38.999Z,99965.05
2018-02-15T17:29:04.984Z,99968.70
2018-02-15T17:31:30.963Z,99962.07
2018-02-15T17:33:56.985Z,99968.97
2018-02-15T17:36:22.936Z,99970.80
2018-02-15T17:38:48.883Z,99967.00
2018-02-15T17:41:14.865Z,99969.13
2018-02-15T17:43:40.814Z,99962.81
2018-02-15T17:46:06.763Z,99968.84
2018-02-15T17:48:32.724Z,99954.28
2018-02-15T17:50:58.675Z,99952.83
2018-02-15T17:53:24.613Z,99951.03
2018-02-15T17:55:50.542Z,99954.20
2018-02-15T17:58:16.502Z,99951.55
2018-02-15T18:00:42.463Z,99958.66
2018-02-15T18:03:08.384Z,99953.14
2018-02-15T18:05:34.341Z,99956.27
2018-02-15T18:08:00.291Z,99944.45
2018-02-15T18:10:27.252Z,99950.73
2018-02-15T18:12:53.193Z,99941.15
2018-02-15T18:15:19.131Z,99944.16
2018-02-15T18:17:45.095Z,99945.75
2018-02-15T18:20:11.053Z,99939.32
2018-02-15T18:22:37.056Z,99942.83
2018-02-15T18:25:03.029Z,99935.43
2018-02-15T18:27:28.983Z,99934.09
2018-02-15T18:29:54.953Z,99936.69
2018-02-15T18:32:20.955Z,99941.73
2018-02-15T18:34:46.899Z,99941.63
2018-02-15T18:37:12.857Z,99936.47
2018-02-15T18:39:38.779Z,99929.88
2018-02-15T18:42:04.711Z,99930.27
2018-02-15T18:44:30.659Z,99932.05
2018-02-15T18:46:56.599Z,99921.60
2018-02-15T18:49:22.609Z,99925.23
2018-02-15T18:51:48.557Z,99922.08
2018-02-15T18:54:14.501Z,99918.86
2018-02-15T18:56:40.454Z,99926.02
2018-02-15T18:59:06.413Z,99932.59
2018-02-15T19:01:32.343Z,99934.70
2018-02-15T19:03:58.271Z,99935.95
2018-02-15T19:06:24.209Z,99928.53
2018-02-15T19:08:50.149Z,99917.86
2018-02-15T19:11:16.111Z,99920.72
2018-02-15T19:13:45.622Z,99911.36
2018-02-15T19:16:11.567Z,99911.74
2018-02-15T19:18:37.518Z,99916.75
2018-02-15T19:21:03.463Z,99917.52
2018-02-15T19:23:29.421Z,99924.53
2018-02-15T19:25:55.379Z,99918.45
2018-02-15T19:28:21.313Z,99918.64
2018-02-15T19:30:47.269Z,99921.23
2018-02-15T19:33:13.310Z,99919.32
2018-02-15T19:35:39.257Z,99921.30
2018-02-15T19:38:05.579Z,99915.89
2018-02-15T19:40:31.760Z,99918.73
2018-02-15T19:42:57.695Z,99912.55
2018-02-15T19:45:23.623Z,99916.86
2018-02-15T19:47:49.583Z,99915.92
2018-02-15T19:50:15.547Z,99913.00
2018-02-15T19:52:41.480Z,99915.92
2018-02-15T19:55:07.434Z,99905.12
2018-02-15T19:57:33.384Z,99912.75
2018-02-15T19:59:59.346Z,99918.75
2018-02-15T20:02:25.284Z,99912.21
2018-02-15T20:04:51.214Z,99905.53
2018-02-15T20:07:19.185Z,99903.08
2018-02-15T20:09:45.115Z,99898.11
2018-02-15T20:12:11.778Z,99900.59
2018-02-15T20:14:37.733Z,99892.91
2018-02-15T20:17:03.734Z,99900.89
2018-02-15T20:19:29.684Z,99894.17
2018-02-15T20:21:55.644Z,99903.27
2018-02-15T20:24:21.641Z,99906.14
2018-02-15T20:26:47.612Z,99912.43
2018-02-15T20:29:13.552Z,99909.11
2018-02-15T20:31:39.510Z,99907.39
2018-02-15T20:34:05.431Z,99899.47
2018-02-15T20:36:31.396Z,99902.78
2018-02-15T20:38:57.346Z,99905.55
2018-02-15T20:41:23.304Z,99900.81
2018-02-15T20:43:52.405Z,99902.48
2018-02-15T20:46:18.367Z,99900.59
2018-02-15T20:48:44.327Z,99899.08
2018-02-15T20:51:10.278Z,99901.70
2018-02-15T20:53:36.213Z,99904.24
2018-02-15T20:56:02.160Z,99894.91
2018-02-15T20:58:28.135Z,99895.63
2018-02-15T21:00:54.121Z,99889.09
2018-02-15T21:03:20.087Z,99887.16
2018-02-15T21:05:47.134Z,99893.91
2018-02-15T21:08:13.135Z,99901.63
2018-02-15T21:10:39.172Z,99899.12
2018-02-15T21:13:06.233Z,99903.64
2018-02-15T21:15:32.202Z,99913.69
2018-02-15T21:17:58.131Z,99911.48
2018-02-15T21:20:24.067Z,99908.35
2018-02-15T21:22:50.069Z,99916.66
2018-02-15T21:25:16.122Z,99922.89
2018-02-15T21:27:42.088Z,99925.86
2018-02-15T21:30:08.038Z,99929.55
2018-02-15T21:32:35.026Z,99928.12
2018-02-15T21:35:00.976Z,99929.17
2018-02-15T21:37:26.932Z,99924.69
2018-02-15T21:39:52.872Z,99915.80
2018-02-15T21:42:18.834Z,99915.53
2018-02-15T21:44:44.827Z,99922.52
2018-02-15T21:47:10.787Z,99926.58
2018-02-15T21:49:36.741Z,99931.27
2018-02-15T21:52:02.690Z,99934.70
2018-02-15T21:54:28.638Z,99936.44
2018-02-15T21:56:54.579Z,99949.20
2018-02-15T21:59:20.552Z,99939.70
2018-02-15T22:01:46.536Z,99946.95
2018-02-15T22:04:12.473Z,99955.19
2018-02-15T22:06:38.433Z,99951.14
2018-02-15T22:09:04.370Z,99957.14
2018-02-15T22:11:30.302Z,99950.28
2018-02-15T22:13:56.248Z,99942.86
2018-02-15T22:16:22.186Z,99949.80
2018-02-15T22:18:48.128Z,99953.58
2018-02-15T22:21:14.064Z,99958.90
2018-02-15T22:23:40.002Z,99958.97
2018-02-15T22:26:05.944Z,99959.34
2018-02-15T22:28:31.875Z,99957.07
2018-02-15T22:30:57.817Z,99954.67
2018-02-15T22:33:23.785Z,99954.28
2018-02-15T22:35:49.735Z,99947.69
2018-02-15T22:38:15.682Z,99951.31
2018-02-15T22:40:41.606Z,99955.63
2018-02-15T22:43:07.536Z,99954.97
2018-02-15T22:45:33.454Z,99959.67
2018-02-15T22:47:59.381Z,99955.67
2018-02-15T22:50:25.306Z,99961.01
2018-02-15T22:52:51.228Z,99962.48
2018-02-15T22:55:17.160Z,99951.48
2018-02-15T22:57:43.092Z,99951.65
2018-02-15T23:00:09.020Z,99948.02
2018-02-15T23:02:34.968Z,99950.51
2018-02-15T23:05:00.910Z,99968.67
2018-02-15T23:07:26.843Z,99967.43
2018-02-15T23:09:52.764Z,99968.17
2018-02-15T23:12:18.703Z,99962.95
2018-02-15T23:14:44.620Z,99968.84
2018-02-15T23:17:10.542Z,99973.13
2018-02-15T23:19:36.462Z,99966.66
2018-02-15T23:22:02.410Z,99966.59
2018-02-15T23:24:28.384Z,99957.56
2018-02-15T23:26:54.347Z,99947.63
2018-02-15T23:29:20.278Z,99955.84
2018-02-15T23:31:46.353Z,99957.31
2018-02-15T23:34:12.301Z,99952.22
2018-02-15T23:36:38.241Z,99949.41
2018-02-15T23:39:04.171Z,99945.36
2018-02-15T23:41:30.106Z,99945.34
2018-02-15T23:43:56.052Z,99941.27
2018-02-15T23:46:21.998Z,99946.93
2018-02-15T23:48:47.932Z,99959.14
2018-02-15T23:51:13.870Z,99954.91
2018-02-15T23:53:39.809Z,99955.57
2018-02-15T23:56:05.751Z,99958.95
2018-02-15T23:58:31.683Z,99957.61
